createdAt,value
2022-10-01T00:00:05.964Z,12
2022-10-01T00:01:05.964Z,10
2022-10-01T00:02:05.964Z,11
2022-10-01T00:03:05.936Z,11
2022-10-01T00:04:05.937Z,12
2022-10-01T00:05:05.937Z,11
2022-10-01T00:06:05.937Z,11
2022-10-01T00:07:05.937Z,11
2022-10-01T00:08:05.937Z,13
2022-10-01T00:09:05.966Z,14
2022-10-01T00:10:05.966Z,12
2022-10-01T00:11:05.966Z,14
2022-10-01T00:12:05.966Z,12
2022-10-01T00:13:05.966Z,10
2022-10-01T00:14:05.967Z,13
2022-10-01T00:15:05.967Z,15
2022-10-01T00:16:05.967Z,10
2022-10-01T00:17:05.967Z,10
2022-10-01T00:18:05.939Z,10
2022-10-01T00:19:05.939Z,13
2022-10-01T00:20:05.940Z,10
2022-10-01T00:21:05.940Z,12
2022-10-01T00:22:07.605Z,12
2022-10-01T00:23:05.940Z,9
2022-10-01T00:24:05.968Z,10
2022-10-01T00:25:05.969Z,10
2022-10-01T00:26:05.969Z,12
2022-10-01T00:27:05.969Z,11
2022-10-01T00:28:05.969Z,9
2022-10-01T00:29:05.969Z,10
2022-10-01T00:30:05.970Z,11
2022-10-01T00:31:05.970Z,11
2022-10-01T00:32:05.970Z,17
2022-10-01T00:33:05.942Z,13
2022-10-01T00:34:05.942Z,13
2022-10-01T00:35:05.943Z,14
2022-10-01T00:36:05.943Z,16
2022-10-01T00:37:05.943Z,15
2022-10-01T00:38:05.943Z,13
2022-10-01T00:39:05.971Z,15
2022-10-01T00:40:05.971Z,8
2022-10-01T00:41:05.972Z,7
2022-10-01T00:42:05.972Z,10
2022-10-01T00:43:05.972Z,6
2022-10-01T00:44:05.972Z,6
2022-10-01T00:45:05.973Z,7
2022-10-01T00:46:05.973Z,8
2022-10-01T00:47:05.973Z,8
2022-10-01T00:48:05.998Z,7
2022-10-01T00:49:05.945Z,12
2022-10-01T00:50:05.945Z,13
2022-10-01T00:51:05.946Z,16
2022-10-01T00:52:05.946Z,17
2022-10-01T00:53:05.946Z,16
2022-10-01T00:54:05.974Z,13
2022-10-01T00:55:05.974Z,12
2022-10-01T00:56:05.975Z,11
2022-10-01T00:57:05.983Z,12
2022-10-01T00:58:05.975Z,12
2022-10-01T00:59:05.975Z,12
2022-10-01T01:00:05.976Z,11
2022-10-01T01:01:05.976Z,16
2022-10-01T01:02:05.976Z,13
2022-10-01T01:03:05.976Z,12
2022-10-01T01:04:05.948Z,13
2022-10-01T01:05:05.948Z,12
2022-10-01T01:06:05.949Z,11
2022-10-01T01:07:05.949Z,11
2022-10-01T01:08:05.949Z,9
2022-10-01T01:09:05.949Z,8
2022-10-01T01:10:05.978Z,9
2022-10-01T01:11:05.978Z,6
2022-10-01T01:12:05.978Z,8
2022-10-01T01:13:05.978Z,12
2022-10-01T01:14:05.978Z,7
2022-10-01T01:15:05.978Z,9
2022-10-01T01:16:05.979Z,10
2022-10-01T01:17:05.979Z,11
2022-10-01T01:18:05.979Z,12
2022-10-01T01:19:05.951Z,9
2022-10-01T01:20:05.951Z,8
2022-10-01T01:21:05.952Z,9
2022-10-01T01:22:13.608Z,10
2022-10-01T01:23:05.952Z,8
2022-10-01T01:24:05.952Z,9
2022-10-01T01:25:05.981Z,9
2022-10-01T01:26:05.981Z,9
2022-10-01T01:27:05.981Z,10
2022-10-01T01:28:05.981Z,11
2022-10-01T01:29:05.981Z,10
2022-10-01T01:30:05.981Z,9
2022-10-01T01:31:05.982Z,12
2022-10-01T01:32:05.982Z,14
2022-10-01T01:33:05.982Z,13
2022-10-01T01:34:05.954Z,12
2022-10-01T01:35:05.954Z,10
2022-10-01T01:36:05.954Z,10
2022-10-01T01:37:05.955Z,8
2022-10-01T01:38:05.955Z,9
2022-10-01T01:39:05.955Z,10
2022-10-01T01:40:05.983Z,10
2022-10-01T01:41:05.983Z,8
2022-10-01T01:42:05.984Z,10
2022-10-01T01:43:05.984Z,9
2022-10-01T01:44:05.984Z,11
2022-10-01T01:45:05.984Z,9
2022-10-01T01:46:05.984Z,9
2022-10-01T01:47:05.985Z,9
2022-10-01T01:48:05.985Z,9
2022-10-01T01:49:06.010Z,10
2022-10-01T01:50:05.957Z,9
2022-10-01T01:51:05.957Z,9
2022-10-01T01:52:05.957Z,10
2022-10-01T01:53:05.958Z,8
2022-10-01T01:54:05.958Z,9
2022-10-01T01:55:05.986Z,9
2022-10-01T01:56:05.986Z,9
2022-10-01T01:57:05.986Z,9
2022-10-01T01:58:05.995Z,11
2022-10-01T01:59:05.987Z,10
2022-10-01T02:00:05.987Z,11
2022-10-01T02:01:05.987Z,10
2022-10-01T02:02:05.987Z,7
2022-10-01T02:03:05.988Z,7
2022-10-01T02:04:05.988Z,8
2022-10-01T02:05:05.960Z,8
2022-10-01T02:06:05.960Z,7
2022-10-01T02:07:05.960Z,8
2022-10-01T02:08:05.960Z,7
2022-10-01T02:09:05.961Z,8
2022-10-01T02:10:05.961Z,8
2022-10-01T02:11:05.989Z,11
2022-10-01T02:12:05.989Z,8
2022-10-01T02:13:05.989Z,9
2022-10-01T02:14:05.990Z,9
2022-10-01T02:15:05.990Z,7
2022-10-01T02:16:05.990Z,8
2022-10-01T02:17:05.990Z,8
2022-10-01T02:18:05.990Z,7
2022-10-01T02:19:05.991Z,7
2022-10-01T02:20:05.963Z,9
2022-10-01T02:21:05.963Z,10
2022-10-01T02:22:11.369Z,10
2022-10-01T02:23:05.963Z,9
2022-10-01T02:24:05.963Z,8
2022-10-01T02:25:05.964Z,7
2022-10-01T02:26:05.992Z,7
2022-10-01T02:27:05.992Z,8
2022-10-01T02:28:05.992Z,9
2022-10-01T02:29:05.992Z,6
2022-10-01T02:30:05.993Z,7
2022-10-01T02:31:05.993Z,7
2022-10-01T02:32:05.993Z,9
2022-10-01T02:33:05.993Z,8
2022-10-01T02:34:05.993Z,7
2022-10-01T02:35:05.966Z,8
2022-10-01T02:36:05.966Z,10
2022-10-01T02:37:05.966Z,10
2022-10-01T02:38:05.966Z,10
2022-10-01T02:39:05.966Z,10
2022-10-01T02:40:05.966Z,9
2022-10-01T02:41:05.995Z,10
2022-10-01T02:42:05.995Z,9
2022-10-01T02:43:05.995Z,9
2022-10-01T02:44:05.995Z,12
2022-10-01T02:45:05.996Z,10
2022-10-01T02:46:05.996Z,9
2022-10-01T02:47:05.996Z,9
2022-10-01T02:48:05.996Z,10
2022-10-01T02:49:05.997Z,9
2022-10-01T02:50:05.968Z,12
2022-10-01T02:51:05.969Z,9
2022-10-01T02:52:05.969Z,11
2022-10-01T02:53:05.969Z,11
2022-10-01T02:54:05.969Z,11
2022-10-01T02:55:05.969Z,11
2022-10-01T02:56:05.998Z,10
2022-10-01T02:57:05.998Z,9
2022-10-01T02:58:05.998Z,9
2022-10-01T02:59:05.998Z,9
2022-10-01T03:00:05.998Z,9
2022-10-01T03:01:05.998Z,8
2022-10-01T03:02:05.999Z,8
2022-10-01T03:03:05.999Z,11
2022-10-01T03:04:05.999Z,8
2022-10-01T03:05:06.016Z,9
2022-10-01T03:06:05.971Z,9
2022-10-01T03:07:05.972Z,7
2022-10-01T03:08:05.999Z,7
2022-10-01T03:09:05.972Z,9
2022-10-01T03:10:05.972Z,8
2022-10-01T03:11:06.010Z,9
2022-10-01T03:12:06.000Z,9
2022-10-01T03:13:06.001Z,8
2022-10-01T03:14:06.017Z,9
2022-10-01T03:15:06.001Z,10
2022-10-01T03:16:06.001Z,9
2022-10-01T03:17:06.002Z,9
2022-10-01T03:18:06.002Z,7
2022-10-01T03:19:06.002Z,7
2022-10-01T03:20:06.002Z,6
2022-10-01T03:21:05.974Z,6
2022-10-01T03:22:05.974Z,8
2022-10-01T03:23:06.002Z,10
2022-10-01T03:24:05.975Z,9
2022-10-01T03:25:05.975Z,8
2022-10-01T03:26:06.012Z,10
2022-10-01T03:27:06.004Z,9
2022-10-01T03:28:06.004Z,8
2022-10-01T03:29:06.020Z,8
2022-10-01T03:30:06.004Z,8
2022-10-01T03:31:06.004Z,8
2022-10-01T03:32:06.004Z,7
2022-10-01T03:33:06.005Z,8
2022-10-01T03:34:06.005Z,8
2022-10-01T03:35:05.977Z,7
2022-10-01T03:36:05.977Z,9
2022-10-01T03:37:05.977Z,7
2022-10-01T03:38:06.005Z,7
2022-10-01T03:39:05.978Z,8
2022-10-01T03:40:05.978Z,15
2022-10-01T03:41:06.016Z,13
2022-10-01T03:42:06.006Z,11
2022-10-01T03:43:06.007Z,10
2022-10-01T03:44:06.007Z,9
2022-10-01T03:45:06.007Z,9
2022-10-01T03:46:06.007Z,10
2022-10-01T03:47:06.007Z,9
2022-10-01T03:48:06.008Z,8
2022-10-01T03:49:06.008Z,8
2022-10-01T03:50:05.980Z,8
2022-10-01T03:51:05.980Z,8
2022-10-01T03:52:05.980Z,10
2022-10-01T03:53:05.980Z,10
2022-10-01T03:54:05.981Z,9
2022-10-01T03:55:05.981Z,12
2022-10-01T03:56:06.009Z,9
2022-10-01T03:57:06.009Z,6
2022-10-01T03:58:06.009Z,9
2022-10-01T03:59:06.010Z,7
2022-10-01T04:00:06.010Z,7
2022-10-01T04:01:06.010Z,7
2022-10-01T04:02:06.010Z,6
2022-10-01T04:03:06.010Z,8
2022-10-01T04:04:06.011Z,9
2022-10-01T04:05:06.020Z,9
2022-10-01T04:06:05.983Z,9
2022-10-01T04:07:05.983Z,10
2022-10-01T04:08:05.983Z,9
2022-10-01T04:09:05.983Z,8
2022-10-01T04:10:05.984Z,7
2022-10-01T04:11:06.012Z,8
2022-10-01T04:12:06.012Z,9
2022-10-01T04:13:06.012Z,6
2022-10-01T04:14:06.021Z,8
2022-10-01T04:15:06.013Z,11
2022-10-01T04:16:06.013Z,9
2022-10-01T04:17:06.013Z,11
2022-10-01T04:18:06.013Z,12
2022-10-01T04:19:06.014Z,10
2022-10-01T04:20:06.014Z,9
2022-10-01T04:21:05.986Z,12
2022-10-01T04:22:05.986Z,11
2022-10-01T04:23:05.986Z,11
2022-10-01T04:24:05.986Z,10
2022-10-01T04:25:05.987Z,10
2022-10-01T04:26:05.987Z,10
2022-10-01T04:27:06.015Z,11
2022-10-01T04:28:06.015Z,11
2022-10-01T04:29:06.015Z,11
2022-10-01T04:30:06.016Z,11
2022-10-01T04:31:06.016Z,12
2022-10-01T04:32:06.016Z,12
2022-10-01T04:33:06.016Z,10
2022-10-01T04:34:06.016Z,9
2022-10-01T04:35:06.017Z,9
2022-10-01T04:36:05.989Z,9
2022-10-01T04:37:05.989Z,9
2022-10-01T04:38:05.989Z,9
2022-10-01T04:39:05.989Z,11
2022-10-01T04:40:05.990Z,7
2022-10-01T04:41:05.990Z,7
2022-10-01T04:42:06.018Z,7
2022-10-01T04:43:06.018Z,10
2022-10-01T04:44:06.018Z,9
2022-10-01T04:45:06.018Z,7
2022-10-01T04:46:06.019Z,12
2022-10-01T04:47:06.019Z,9
2022-10-01T04:48:06.019Z,13
2022-10-01T04:49:06.019Z,12
2022-10-01T04:50:06.020Z,11
2022-10-01T04:51:05.992Z,7
2022-10-01T04:52:05.992Z,8
2022-10-01T04:53:05.992Z,10
2022-10-01T04:54:05.992Z,10
2022-10-01T04:55:05.992Z,11
2022-10-01T04:56:05.993Z,13
2022-10-01T04:57:06.021Z,12
2022-10-01T04:58:06.021Z,9
2022-10-01T04:59:06.021Z,10
2022-10-01T05:00:06.021Z,10
2022-10-01T05:01:06.022Z,12
2022-10-01T05:02:06.022Z,9
2022-10-01T05:03:06.022Z,11
2022-10-01T05:04:06.022Z,12
2022-10-01T05:05:06.023Z,14
2022-10-01T05:06:06.047Z,10
2022-10-01T05:07:05.995Z,10
2022-10-01T05:08:05.995Z,13
2022-10-01T05:09:05.995Z,11
2022-10-01T05:10:05.995Z,12
2022-10-01T05:11:05.996Z,11
2022-10-01T05:12:06.024Z,14
2022-10-01T05:13:06.024Z,16
2022-10-01T05:14:06.024Z,12
2022-10-01T05:15:06.033Z,17
2022-10-01T05:16:06.025Z,15
2022-10-01T05:17:06.025Z,14
2022-10-01T05:18:06.025Z,16
2022-10-01T05:19:06.025Z,12
2022-10-01T05:20:06.025Z,11
2022-10-01T05:21:06.026Z,14
2022-10-01T05:22:05.998Z,10
2022-10-01T05:23:05.998Z,9
2022-10-01T05:24:05.998Z,12
2022-10-01T05:25:05.998Z,9
2022-10-01T05:26:05.999Z,10
2022-10-01T05:27:05.999Z,9
2022-10-01T05:28:06.027Z,13
2022-10-01T05:29:06.027Z,12
2022-10-01T05:30:06.027Z,15
2022-10-01T05:31:06.028Z,11
2022-10-01T05:32:06.028Z,10
2022-10-01T05:33:06.028Z,15
2022-10-01T05:34:06.028Z,10
2022-10-01T05:35:06.028Z,11
2022-10-01T05:36:06.029Z,11
2022-10-01T05:37:06.001Z,13
2022-10-01T05:38:06.001Z,13
2022-10-01T05:39:06.001Z,8
2022-10-01T05:40:06.001Z,11
2022-10-01T05:41:06.002Z,8
2022-10-01T05:42:06.002Z,8
2022-10-01T05:43:06.030Z,11
2022-10-01T05:44:06.031Z,10
2022-10-01T05:45:06.031Z,13
2022-10-01T05:46:06.031Z,11
2022-10-01T05:47:06.031Z,12
2022-10-01T05:48:06.031Z,9
2022-10-01T05:49:06.032Z,8
2022-10-01T05:50:06.032Z,9
2022-10-01T05:51:06.032Z,9
2022-10-01T05:52:06.004Z,6
2022-10-01T05:53:06.004Z,11
2022-10-01T05:54:06.004Z,14
2022-10-01T05:55:06.005Z,9
2022-10-01T05:56:06.005Z,11
2022-10-01T05:57:06.005Z,11
2022-10-01T05:58:06.033Z,14
2022-10-01T05:59:06.033Z,10
2022-10-01T06:00:06.034Z,12
2022-10-01T06:01:06.034Z,13
2022-10-01T06:02:06.034Z,14
2022-10-01T06:03:06.035Z,11
2022-10-01T06:04:06.035Z,10
2022-10-01T06:05:06.035Z,9
2022-10-01T06:06:06.035Z,7
2022-10-01T06:07:06.007Z,13
2022-10-01T06:08:06.008Z,12
2022-10-01T06:09:06.008Z,15
2022-10-01T06:10:06.008Z,14
2022-10-01T06:11:06.008Z,10
2022-10-01T06:12:06.008Z,10
2022-10-01T06:13:06.037Z,10
2022-10-01T06:14:06.037Z,15
2022-10-01T06:15:06.037Z,9
2022-10-01T06:16:06.038Z,10
2022-10-01T06:17:06.038Z,9
2022-10-01T06:18:06.038Z,9
2022-10-01T06:19:06.038Z,17
2022-10-01T06:20:06.038Z,12
2022-10-01T06:21:06.039Z,14
2022-10-01T06:22:06.056Z,15
2022-10-01T06:23:06.011Z,16
2022-10-01T06:24:06.011Z,13
2022-10-01T06:25:06.039Z,16
2022-10-01T06:26:06.012Z,14
2022-10-01T06:27:06.012Z,12
2022-10-01T06:28:06.050Z,9
2022-10-01T06:29:06.040Z,9
2022-10-01T06:30:06.041Z,12
2022-10-01T06:31:06.057Z,17
2022-10-01T06:32:06.041Z,11
2022-10-01T06:33:06.041Z,10
2022-10-01T06:34:06.042Z,9
2022-10-01T06:35:06.042Z,14
2022-10-01T06:36:06.042Z,12
2022-10-01T06:37:06.042Z,9
2022-10-01T06:38:06.014Z,12
2022-10-01T06:39:06.015Z,6
2022-10-01T06:40:06.015Z,5
2022-10-01T06:41:06.015Z,10
2022-10-01T06:42:06.015Z,12
2022-10-01T06:43:06.044Z,11
2022-10-01T06:44:06.044Z,15
2022-10-01T06:45:06.044Z,15
2022-10-01T06:46:06.061Z,16
2022-10-01T06:47:06.045Z,22
2022-10-01T06:48:06.045Z,18
2022-10-01T06:49:06.045Z,19
2022-10-01T06:50:06.045Z,27
2022-10-01T06:51:06.046Z,26
2022-10-01T06:52:06.046Z,20
2022-10-01T06:53:06.018Z,23
2022-10-01T06:54:06.018Z,18
2022-10-01T06:55:06.019Z,22
2022-10-01T06:56:06.019Z,28
2022-10-01T06:57:06.019Z,26
2022-10-01T06:58:06.019Z,16
2022-10-01T06:59:06.048Z,24
2022-10-01T07:00:06.048Z,16
2022-10-01T07:01:06.048Z,16
2022-10-01T07:02:06.048Z,19
2022-10-01T07:03:06.049Z,20
2022-10-01T07:04:06.049Z,18
2022-10-01T07:05:06.049Z,28
2022-10-01T07:06:06.049Z,18
2022-10-01T07:07:06.050Z,17
2022-10-01T07:08:06.022Z,17
2022-10-01T07:09:06.022Z,18
2022-10-01T07:10:06.022Z,18
2022-10-01T07:11:06.023Z,18
2022-10-01T07:12:06.023Z,18
2022-10-01T07:13:06.023Z,19
2022-10-01T07:14:06.051Z,16
2022-10-01T07:15:06.052Z,21
2022-10-01T07:16:06.052Z,22
2022-10-01T07:17:06.052Z,16
2022-10-01T07:18:06.053Z,13
2022-10-01T07:19:06.053Z,11
2022-10-01T07:20:06.053Z,14
2022-10-01T07:21:06.053Z,13
2022-10-01T07:22:06.054Z,12
2022-10-01T07:23:06.118Z,13
2022-10-01T07:24:06.026Z,16
2022-10-01T07:25:06.026Z,10
2022-10-01T07:26:06.054Z,10
2022-10-01T07:27:06.027Z,13
2022-10-01T07:28:06.027Z,14
2022-10-01T07:29:06.068Z,16
2022-10-01T07:31:06.056Z,18
2022-10-01T07:32:06.072Z,20
2022-10-01T07:33:06.056Z,16
2022-10-01T07:34:06.056Z,18
2022-10-01T07:35:06.057Z,25
2022-10-01T07:36:06.057Z,21
2022-10-01T07:37:06.057Z,23
2022-10-01T07:38:06.057Z,31
2022-10-01T07:39:06.030Z,35
2022-10-01T07:40:06.030Z,34
2022-10-01T07:41:06.030Z,30
2022-10-01T07:42:06.030Z,29
2022-10-01T07:43:06.031Z,39
2022-10-01T07:44:06.059Z,35
2022-10-01T07:45:06.059Z,33
2022-10-01T07:46:06.059Z,23
2022-10-01T07:47:06.084Z,22
2022-10-01T07:48:06.060Z,22
2022-10-01T07:49:06.060Z,25
2022-10-01T07:50:06.060Z,20
2022-10-01T07:51:06.061Z,21
2022-10-01T07:52:06.061Z,21
2022-10-01T07:53:06.061Z,22
2022-10-01T07:54:06.033Z,16
2022-10-01T07:55:06.034Z,20
2022-10-01T07:56:06.034Z,22
2022-10-01T07:57:06.034Z,21
2022-10-01T07:58:06.034Z,25
2022-10-01T07:59:06.035Z,22
2022-10-01T08:00:06.063Z,23
2022-10-01T08:01:06.063Z,29
2022-10-01T08:02:06.063Z,17
2022-10-01T08:03:06.064Z,23
2022-10-01T08:04:06.064Z,22
2022-10-01T08:05:06.064Z,22
2022-10-01T08:06:06.065Z,27
2022-10-01T08:07:06.065Z,28
2022-10-01T08:08:06.065Z,29
2022-10-01T08:09:06.037Z,28
2022-10-01T08:10:06.037Z,26
2022-10-01T08:11:06.038Z,32
2022-10-01T08:12:06.038Z,31
2022-10-01T08:13:06.038Z,33
2022-10-01T08:14:06.038Z,25
2022-10-01T08:15:06.067Z,23
2022-10-01T08:16:06.067Z,17
2022-10-01T08:17:06.067Z,30
2022-10-01T08:18:06.067Z,22
2022-10-01T08:19:06.068Z,27
2022-10-01T08:20:06.068Z,22
2022-10-01T08:21:06.068Z,19
2022-10-01T08:22:06.069Z,17
2022-10-01T08:23:06.069Z,23
2022-10-01T08:24:06.094Z,23
2022-10-01T08:25:06.041Z,26
2022-10-01T08:26:06.041Z,24
2022-10-01T08:27:06.042Z,25
2022-10-01T08:28:06.042Z,33
2022-10-01T08:29:06.042Z,36
2022-10-01T08:30:06.071Z,32
2022-10-01T08:31:06.071Z,25
2022-10-01T08:32:06.071Z,33
2022-10-01T08:33:06.080Z,31
2022-10-01T08:34:06.072Z,37
2022-10-01T08:35:06.072Z,31
2022-10-01T08:36:06.072Z,33
2022-10-01T08:37:06.072Z,36
2022-10-01T08:38:06.073Z,32
2022-10-01T08:39:06.073Z,30
2022-10-01T08:40:06.045Z,26
2022-10-01T08:41:06.045Z,28
2022-10-01T08:42:06.045Z,39
2022-10-01T08:43:06.046Z,39
2022-10-01T08:44:06.046Z,33
2022-10-01T08:45:06.074Z,28
2022-10-01T08:46:06.075Z,34
2022-10-01T08:47:06.075Z,32
2022-10-01T08:48:06.083Z,32
2022-10-01T08:49:06.075Z,34
2022-10-01T08:50:06.076Z,36
2022-10-01T08:51:06.076Z,38
2022-10-01T08:52:06.076Z,36
2022-10-01T08:53:06.076Z,32
2022-10-01T08:54:06.077Z,38
2022-10-01T08:55:06.049Z,45
2022-10-01T08:56:06.049Z,55
2022-10-01T08:57:06.049Z,34
2022-10-01T08:58:06.049Z,41
2022-10-01T08:59:06.050Z,39
2022-10-01T09:00:06.050Z,32
2022-10-01T09:01:06.078Z,38
2022-10-01T09:03:06.095Z,32
2022-10-01T09:04:06.079Z,32
2022-10-01T09:05:06.079Z,36
2022-10-01T09:06:06.080Z,36
2022-10-01T09:07:06.080Z,43
2022-10-01T09:08:06.080Z,40
2022-10-01T09:09:06.080Z,40
2022-10-01T09:10:06.052Z,37
2022-10-01T09:11:06.053Z,38
2022-10-01T09:12:06.053Z,33
2022-10-01T09:13:06.053Z,41
2022-10-01T09:14:06.053Z,44
2022-10-01T09:15:06.054Z,43
2022-10-01T09:16:06.082Z,46
2022-10-01T09:17:06.082Z,45
2022-10-01T09:18:06.083Z,42
2022-10-01T09:19:06.083Z,31
2022-10-01T09:20:06.083Z,35
2022-10-01T09:21:06.084Z,41
2022-10-01T09:22:06.084Z,47
2022-10-01T09:23:06.084Z,46
2022-10-01T09:24:06.084Z,42
2022-10-01T09:25:06.056Z,35
2022-10-01T09:26:06.057Z,38
2022-10-01T09:27:06.057Z,43
2022-10-01T09:28:06.057Z,39
2022-10-01T09:29:06.057Z,39
2022-10-01T09:30:06.058Z,42
2022-10-01T09:31:06.086Z,39
2022-10-01T09:32:06.086Z,39
2022-10-01T09:33:06.086Z,35
2022-10-01T09:34:06.087Z,38
2022-10-01T09:35:06.087Z,33
2022-10-01T09:36:06.087Z,26
2022-10-01T09:37:06.087Z,24
2022-10-01T09:38:06.088Z,30
2022-10-01T09:39:06.088Z,27
2022-10-01T09:40:06.153Z,28
2022-10-01T09:41:06.060Z,26
2022-10-01T09:42:06.061Z,34
2022-10-01T09:43:07.606Z,38
2022-10-01T09:44:06.061Z,36
2022-10-01T09:45:06.061Z,37
2022-10-01T09:46:06.090Z,36
2022-10-01T09:47:06.090Z,36
2022-10-01T09:48:06.090Z,40
2022-10-01T09:49:06.091Z,36
2022-10-01T09:50:06.091Z,38
2022-10-01T09:51:06.091Z,31
2022-10-01T09:52:06.091Z,27
2022-10-01T09:53:06.092Z,34
2022-10-01T09:54:06.092Z,35
2022-10-01T09:55:06.117Z,31
2022-10-01T09:56:06.064Z,53
2022-10-01T09:57:06.065Z,46
2022-10-01T09:58:06.065Z,41
2022-10-01T09:59:06.065Z,37
2022-10-01T10:00:06.065Z,36
2022-10-01T10:01:06.094Z,33
2022-10-01T10:02:06.094Z,33
2022-10-01T10:03:06.095Z,36
2022-10-01T10:04:06.103Z,39
2022-10-01T10:05:06.095Z,36
2022-10-01T10:06:06.095Z,42
2022-10-01T10:07:06.095Z,34
2022-10-01T10:08:06.096Z,28
2022-10-01T10:09:06.096Z,37
2022-10-01T10:10:06.096Z,33
2022-10-01T10:11:06.068Z,41
2022-10-01T10:12:06.069Z,29
2022-10-01T10:13:06.069Z,38
2022-10-01T10:14:06.069Z,41
2022-10-01T10:15:06.069Z,32
2022-10-01T10:16:06.070Z,41
2022-10-01T10:17:06.098Z,42
2022-10-01T10:18:06.098Z,34
2022-10-01T10:19:06.099Z,37
2022-10-01T10:20:06.099Z,39
2022-10-01T10:21:06.099Z,39
2022-10-01T10:22:06.100Z,36
2022-10-01T10:23:06.100Z,30
2022-10-01T10:24:06.100Z,25
2022-10-01T10:25:06.100Z,25
2022-10-01T10:26:06.072Z,23
2022-10-01T10:27:06.073Z,25
2022-10-01T10:28:06.073Z,28
2022-10-01T10:29:06.073Z,24
2022-10-01T10:30:06.073Z,33
2022-10-01T10:31:06.074Z,39
2022-10-01T10:32:06.102Z,32
2022-10-01T10:33:06.102Z,33
2022-10-01T10:34:06.102Z,33
2022-10-01T10:35:06.103Z,24
2022-10-01T10:36:06.103Z,32
2022-10-01T10:37:06.103Z,36
2022-10-01T10:38:06.104Z,37
2022-10-01T10:39:06.104Z,36
2022-10-01T10:40:06.104Z,31
2022-10-01T10:41:06.129Z,29
2022-10-01T10:42:06.076Z,36
2022-10-01T10:43:13.613Z,32
2022-10-01T10:44:06.077Z,24
2022-10-01T10:45:06.077Z,31
2022-10-01T10:46:06.077Z,23
2022-10-01T10:47:06.106Z,29
2022-10-01T10:48:06.106Z,27
2022-10-01T10:49:06.106Z,27
2022-10-01T10:50:06.106Z,35
2022-10-01T10:51:06.107Z,25
2022-10-01T10:52:06.107Z,25
2022-10-01T10:53:06.107Z,27
2022-10-01T10:54:06.108Z,30
2022-10-01T10:55:06.108Z,29
2022-10-01T10:56:06.125Z,32
2022-10-01T10:57:06.080Z,39
2022-10-01T10:58:06.081Z,41
2022-10-01T10:59:06.109Z,36
2022-10-01T11:00:06.081Z,39
2022-10-01T11:01:06.081Z,39
2022-10-01T11:02:06.125Z,34
2022-10-01T11:03:06.110Z,28
2022-10-01T11:04:06.110Z,28
2022-10-01T11:05:06.127Z,24
2022-10-01T11:06:06.111Z,22
2022-10-01T11:07:06.111Z,21
2022-10-01T11:08:06.111Z,21
2022-10-01T11:09:06.111Z,25
2022-10-01T11:10:06.112Z,37
2022-10-01T11:11:06.112Z,28
2022-10-01T11:12:06.084Z,17
2022-10-01T11:13:06.084Z,31
2022-10-01T11:14:06.085Z,31
2022-10-01T11:15:06.085Z,35
2022-10-01T11:16:06.085Z,43
2022-10-01T11:17:06.085Z,40
2022-10-01T11:18:06.114Z,40
2022-10-01T11:19:06.114Z,43
2022-10-01T11:20:06.114Z,35
2022-10-01T11:21:06.115Z,30
2022-10-01T11:22:06.115Z,27
2022-10-01T11:23:06.115Z,28
2022-10-01T11:24:06.115Z,30
2022-10-01T11:25:06.116Z,30
2022-10-01T11:26:06.116Z,37
2022-10-01T11:27:06.088Z,31
2022-10-01T11:28:06.088Z,32
2022-10-01T11:29:06.089Z,41
2022-10-01T11:30:06.089Z,43
2022-10-01T11:31:06.089Z,37
2022-10-01T11:32:06.089Z,36
2022-10-01T11:33:06.118Z,33
2022-10-01T11:34:06.118Z,27
2022-10-01T11:35:06.118Z,30
2022-10-01T11:36:06.119Z,35
2022-10-01T11:37:06.119Z,36
2022-10-01T11:38:06.119Z,36
2022-10-01T11:39:06.120Z,41
2022-10-01T11:40:06.120Z,43
2022-10-01T11:41:06.120Z,47
2022-10-01T11:42:06.185Z,38
2022-10-01T11:43:11.376Z,31
2022-10-01T11:44:06.093Z,41
2022-10-01T11:45:06.093Z,42
2022-10-01T11:46:06.093Z,42
2022-10-01T11:47:06.094Z,49
2022-10-01T11:48:06.122Z,56
2022-10-01T11:50:06.123Z,39
2022-10-01T11:51:06.123Z,32
2022-10-01T11:52:06.123Z,28
2022-10-01T11:53:06.123Z,29
2022-10-01T11:54:06.124Z,27
2022-10-01T11:55:06.124Z,28
2022-10-01T11:56:06.124Z,23
2022-10-01T11:57:06.097Z,22
2022-10-01T11:58:06.097Z,22
2022-10-01T11:59:06.097Z,22
2022-10-01T12:00:06.098Z,29
2022-10-01T12:01:06.098Z,25
2022-10-01T12:02:06.098Z,21
2022-10-01T12:03:06.127Z,29
2022-10-01T12:04:06.127Z,24
2022-10-01T12:05:06.127Z,27
2022-10-01T12:06:06.128Z,35
2022-10-01T12:07:06.128Z,28
2022-10-01T12:08:06.128Z,27
2022-10-01T12:09:06.145Z,21
2022-10-01T12:10:06.129Z,16
2022-10-01T12:11:06.129Z,13
2022-10-01T12:12:06.139Z,25
2022-10-01T12:13:06.102Z,27
2022-10-01T12:14:06.102Z,26
2022-10-01T12:15:06.102Z,28
2022-10-01T12:16:06.102Z,29
2022-10-01T12:17:06.103Z,22
2022-10-01T12:18:06.131Z,27
2022-10-01T12:19:06.132Z,27
2022-10-01T12:20:06.132Z,23
2022-10-01T12:21:06.196Z,24
2022-10-01T12:22:06.132Z,23
2022-10-01T12:23:06.133Z,24
2022-10-01T12:24:06.133Z,25
2022-10-01T12:25:06.133Z,20
2022-10-01T12:26:06.134Z,23
2022-10-01T12:27:06.134Z,20
2022-10-01T12:28:06.106Z,25
2022-10-01T12:29:06.106Z,29
2022-10-01T12:30:06.107Z,33
2022-10-01T12:31:06.107Z,24
2022-10-01T12:32:06.107Z,20
2022-10-01T12:33:06.108Z,24
2022-10-01T12:34:06.136Z,20
2022-10-01T12:35:06.136Z,23
2022-10-01T12:36:06.137Z,25
2022-10-01T12:37:06.137Z,26
2022-10-01T12:38:06.137Z,26
2022-10-01T12:39:06.137Z,29
2022-10-01T12:40:06.138Z,35
2022-10-01T12:41:06.138Z,20
2022-10-01T12:42:06.139Z,24
2022-10-01T12:43:06.111Z,19
2022-10-01T12:44:06.111Z,23
2022-10-01T12:45:06.111Z,23
2022-10-01T12:46:06.112Z,29
2022-10-01T12:47:06.112Z,31
2022-10-01T12:48:06.112Z,22
2022-10-01T12:49:06.141Z,21
2022-10-01T12:50:06.141Z,20
2022-10-01T12:51:06.141Z,18
2022-10-01T12:52:06.142Z,19
2022-10-01T12:53:06.142Z,22
2022-10-01T12:54:06.151Z,27
2022-10-01T12:55:06.142Z,29
2022-10-01T12:56:06.143Z,30
2022-10-01T12:57:06.143Z,28
2022-10-01T12:58:06.115Z,29
2022-10-01T12:59:06.116Z,33
2022-10-01T13:00:06.116Z,38
2022-10-01T13:01:06.116Z,32
2022-10-01T13:02:06.116Z,30
2022-10-01T13:03:06.117Z,28
2022-10-01T13:04:06.145Z,25
2022-10-01T13:05:06.145Z,28
2022-10-01T13:06:06.146Z,22
2022-10-01T13:07:06.146Z,22
2022-10-01T13:08:06.146Z,29
2022-10-01T13:09:06.147Z,32
2022-10-01T13:10:06.147Z,27
2022-10-01T13:11:06.147Z,22
2022-10-01T13:12:06.120Z,25
2022-10-01T13:13:06.120Z,28
2022-10-01T13:14:06.120Z,26
2022-10-01T13:15:06.121Z,29
2022-10-01T13:16:06.121Z,29
2022-10-01T13:17:06.121Z,37
2022-10-01T13:18:06.150Z,27
2022-10-01T13:19:06.150Z,15
2022-10-01T13:20:06.150Z,16
2022-10-01T13:21:06.150Z,9
2022-10-01T13:22:06.151Z,12
2022-10-01T13:23:06.151Z,15
2022-10-01T13:24:06.168Z,11
2022-10-01T13:25:06.152Z,12
2022-10-01T13:26:06.152Z,21
2022-10-01T13:27:06.161Z,27
2022-10-01T13:28:06.124Z,21
2022-10-01T13:29:06.125Z,25
2022-10-01T13:30:06.125Z,29
2022-10-01T13:31:06.125Z,28
2022-10-01T13:32:06.126Z,27
2022-10-01T13:33:06.154Z,31
2022-10-01T13:34:06.154Z,18
2022-10-01T13:35:06.155Z,26
2022-10-01T13:36:06.163Z,27
2022-10-01T13:37:06.155Z,29
2022-10-01T13:38:06.156Z,33
2022-10-01T13:39:06.156Z,23
2022-10-01T13:40:06.156Z,21
2022-10-01T13:41:06.157Z,19
2022-10-01T13:42:06.157Z,23
2022-10-01T13:43:06.129Z,30
2022-10-01T13:44:06.129Z,23
2022-10-01T13:45:06.130Z,31
2022-10-01T13:46:06.130Z,41
2022-10-01T13:47:06.130Z,34
2022-10-01T13:48:06.131Z,32
2022-10-01T13:49:06.159Z,36
2022-10-01T13:50:06.159Z,45
2022-10-01T13:51:06.160Z,35
2022-10-01T13:52:06.160Z,35
2022-10-01T13:53:06.161Z,47
2022-10-01T13:54:06.161Z,52
2022-10-01T13:55:06.161Z,44
2022-10-01T13:56:06.161Z,40
2022-10-01T13:57:06.162Z,39
2022-10-01T13:58:06.134Z,31
2022-10-01T13:59:06.134Z,32
2022-10-01T14:00:06.134Z,26
2022-10-01T14:02:06.135Z,27
2022-10-01T14:03:06.135Z,29
2022-10-01T14:04:06.164Z,28
2022-10-01T14:05:06.164Z,30
2022-10-01T14:06:06.165Z,25
2022-10-01T14:07:06.165Z,32
2022-10-01T14:08:06.165Z,37
2022-10-01T14:09:06.165Z,31
2022-10-01T14:10:06.166Z,31
2022-10-01T14:11:06.166Z,38
2022-10-01T14:12:06.166Z,23
2022-10-01T14:13:06.139Z,22
2022-10-01T14:14:06.139Z,22
2022-10-01T14:15:06.139Z,26
2022-10-01T14:16:06.139Z,25
2022-10-01T14:17:06.140Z,27
2022-10-01T14:18:06.140Z,34
2022-10-01T14:19:06.169Z,41
2022-10-01T14:20:06.169Z,45
2022-10-01T14:21:06.169Z,41
2022-10-01T14:22:06.170Z,44
2022-10-01T14:23:06.170Z,28
2022-10-01T14:24:06.170Z,21
2022-10-01T14:25:06.171Z,18
2022-10-01T14:26:06.171Z,17